Time;durP1;ratioP1;P1;durP2;ratioP2;P2;SDS_P1;SDS_P2;PMS_P1;PMS_P2;Temp;Humidity;BMP_temperature;BMP_pressure;BME280_temperature;BME280_humidity;BME280_pressure;Samples;Min_cycle;Max_cycle;Signal;HPM_P1;HPM_P2
2022/07/13 00:00:42;;;;;;;5.75;4.13;;;20.50;99.90;;;;;;5118279;27;20054;-78
2022/07/13 00:03:09;;;;;;;4.60;3.70;;;20.40;99.90;;;;;;5118511;27;20509;-77
2022/07/13 00:05:36;;;;;;;4.95;4.13;;;20.40;99.90;;;;;;5137417;27;20091;-78
2022/07/13 00:08:03;;;;;;;4.60;3.72;;;20.40;99.90;;;;;;5136066;27;20047;-77
2022/07/13 00:10:31;;;;;;;5.63;3.60;;;20.30;99.90;;;;;;5101341;28;20131;-78
2022/07/13 00:12:58;;;;;;;4.90;3.75;;;20.40;99.90;;;;;;5098322;28;20062;-78
2022/07/13 00:15:25;;;;;;;5.13;4.05;;;20.30;99.90;;;;;;5097194;28;20552;-77
2022/07/13 00:17:52;;;;;;;5.22;4.53;;;20.30;99.90;;;;;;5116164;28;20059;-78
2022/07/13 00:20:19;;;;;;;4.90;4.00;;;20.30;99.90;;;;;;5115654;27;20448;-78
2022/07/13 00:22:46;;;;;;;4.90;3.90;;;20.30;99.90;;;;;;5118328;27;20043;-78
2022/07/13 00:25:12;;;;;;;5.25;3.67;;;20.30;99.90;;;;;;5136549;27;20494;-77
2022/07/13 00:27:41;;;;;;;4.55;3.72;;;20.30;99.90;;;;;;5117799;27;20479;-78
2022/07/13 00:30:09;;;;;;;5.72;4.15;;;20.20;99.90;;;;;;5100288;28;20117;-79
2022/07/13 00:32:36;;;;;;;5.30;4.10;;;20.30;99.90;;;;;;5116126;28;20080;-77
2022/07/13 00:35:03;;;;;;;4.45;3.92;;;20.30;99.90;;;;;;5096038;28;20047;-77
2022/07/13 00:37:30;;;;;;;5.28;4.07;;;20.30;99.90;;;;;;5118107;27;20051;-77
2022/07/13 00:39:57;;;;;;;6.40;4.20;;;20.30;99.90;;;;;;5118341;27;20521;-78
2022/07/13 00:42:24;;;;;;;7.47;4.38;;;20.30;99.90;;;;;;5135725;27;20409;-79
2022/07/13 00:44:52;;;;;;;5.15;4.30;;;20.30;99.90;;;;;;5117269;27;20051;-79
2022/07/13 00:47:19;;;;;;;4.78;4.15;;;20.30;99.90;;;;;;5136685;27;20043;-80
2022/07/13 00:49:46;;;;;;;5.07;3.95;;;20.30;99.90;;;;;;5135627;27;20047;-79
2022/07/13 00:52:13;;;;;;;7.00;4.40;;;20.30;99.90;;;;;;5118081;27;20051;-80
2022/07/13 00:54:43;;;;;;;7.03;4.15;;;20.30;99.90;;;;;;5136516;27;20104;-79
2022/07/13 00:57:13;;;;;;;7.45;4.47;;;20.30;99.90;;;;;;5107121;28;20063;-80
2022/07/13 00:59:41;;;;;;;;;;;20.30;99.90;;;;;;5097959;28;20100;-79
2022/07/13 01:02:09;;;;;;;6.45;4.78;;;20.30;99.90;;;;;;5097720;28;19926;-79
2022/07/13 01:04:36;;;;;;;6.60;4.75;;;20.30;99.90;;;;;;5096544;28;20051;-80
2022/07/13 01:07:03;;;;;;;7.72;5.05;;;20.30;99.90;;;;;;5115517;28;20055;-79
2022/07/13 01:09:31;;;;;;;5.43;4.75;;;20.30;99.90;;;;;;5115195;28;20471;-79
2022/07/13 01:11:58;;;;;;;6.72;4.60;;;20.30;99.90;;;;;;5097190;28;20047;-80
2022/07/13 01:14:25;;;;;;;7.97;4.85;;;20.30;99.90;;;;;;5117008;27;20047;-78
2022/07/13 01:16:52;;;;;;;9.45;5.03;;;20.30;99.90;;;;;;5096510;28;20055;-79
2022/07/13 01:19:22;;;;;;;9.75;5.10;;;20.30;99.90;;;;;;5106590;27;20059;-78
2022/07/13 01:21:52;;;;;;;7.20;5.10;;;20.30;99.90;;;;;;5116655;27;20487;-78
2022/07/13 01:24:20;;;;;;;7.13;5.13;;;20.30;99.90;;;;;;5096308;28;20043;-78
2022/07/13 01:26:49;;;;;;;8.00;5.15;;;20.30;99.90;;;;;;5121730;27;20047;-78
2022/07/13 01:29:16;;;;;;;6.82;5.65;;;20.30;99.90;;;;;;5114876;28;20047;-79
2022/07/13 01:31:43;;;;;;;6.68;5.72;;;20.30;99.90;;;;;;5096292;28;20063;-80
2022/07/13 01:34:10;;;;;;;7.95;5.60;;;20.30;99.90;;;;;;5114922;28;20091;-77
2022/07/13 01:36:38;;;;;;;7.03;5.57;;;20.30;99.90;;;;;;5114566;28;20499;-77
2022/07/13 01:39:05;;;;;;;6.07;5.07;;;20.20;99.90;;;;;;5111904;27;20096;-77
2022/07/13 01:41:34;;;;;;;6.60;5.82;;;20.20;99.90;;;;;;5128908;27;20460;-77
2022/07/13 01:44:01;;;;;;;5.80;5.20;;;20.30;99.90;;;;;;5114893;28;20404;-77
2022/07/13 01:46:29;;;;;;;6.10;5.20;;;20.20;99.90;;;;;;5095278;28;20184;-77
2022/07/13 01:48:56;;;;;;;13.18;5.88;;;20.20;99.90;;;;;;5096602;28;20056;-78
2022/07/13 01:51:23;;;;;;;7.57;5.70;;;20.20;99.90;;;;;;5115047;28;20515;-79
2022/07/13 01:53:50;;;;;;;8.07;5.60;;;20.20;99.90;;;;;;5095740;28;20048;-78
2022/07/13 01:56:17;;;;;;;14.05;6.00;;;20.20;99.90;;;;;;5133182;27;20130;-79
2022/07/13 01:58:45;;;;;;;10.57;5.50;;;20.20;99.90;;;;;;5133810;27;20054;-79
2022/07/13 02:01:12;;;;;;;8.27;5.18;;;20.10;99.90;;;;;;5134204;27;20411;-78
2022/07/13 02:03:39;;;;;;;12.73;5.93;;;20.10;99.90;;;;;;5134638;27;20047;-78
2022/07/13 02:06:06;;;;;;;7.63;5.80;;;20.10;99.90;;;;;;5115932;27;20047;-78
2022/07/13 02:08:33;;;;;;;7.22;5.50;;;20.20;99.90;;;;;;5133920;27;20073;-78
2022/07/13 02:11:00;;;;;;;7.38;5.82;;;20.10;99.90;;;;;;5114469;28;20047;-77
2022/07/13 02:13:27;;;;;;;7.80;5.28;;;20.10;99.90;;;;;;5095410;28;20500;-77
2022/07/13 02:15:55;;;;;;;6.78;5.88;;;20.20;99.90;;;;;;5114165;28;20052;-77
2022/07/13 02:18:22;;;;;;;9.50;5.88;;;20.10;99.90;;;;;;5115442;27;20092;-77
2022/07/13 02:20:49;;;;;;;7.28;5.25;;;20.20;99.90;;;;;;5115216;27;20086;-78
2022/07/13 02:23:16;;;;;;;10.70;5.82;;;20.10;99.90;;;;;;5116145;27;20077;-78
2022/07/13 02:25:43;;;;;;;10.15;5.75;;;20.20;99.90;;;;;;5101800;27;20047;-78
2022/07/13 02:28:10;;;;;;;8.10;6.15;;;20.20;99.90;;;;;;5133794;27;20051;-78
2022/07/13 02:30:37;;;;;;;11.15;6.65;;;20.10;99.90;;;;;;5116610;27;20100;-77
2022/07/13 02:33:06;;;;;;;9.45;6.15;;;20.10;99.90;;;;;;5134548;27;20518;-77
2022/07/13 02:35:33;;;;;;;6.25;5.65;;;20.20;99.90;;;;;;5115322;27;20051;-77
2022/07/13 02:38:00;;;;;;;9.93;6.20;;;20.20;99.90;;;;;;5110939;27;20531;-78
2022/07/13 02:40:28;;;;;;;7.63;5.78;;;20.20;99.90;;;;;;5134022;27;20054;-78
2022/07/13 02:42:55;;;;;;;9.32;5.90;;;20.20;99.90;;;;;;5133105;27;20054;-77
2022/07/13 02:45:21;;;;;;;7.70;6.25;;;20.20;99.90;;;;;;5115236;27;20575;-77
2022/07/13 02:47:49;;;;;;;6.50;5.65;;;20.20;99.90;;;;;;5133900;27;20046;-77
2022/07/13 02:50:17;;;;;;;7.55;6.25;;;20.20;99.90;;;;;;5114954;27;20054;-77
2022/07/13 02:52:44;;;;;;;9.38;6.97;;;20.20;99.90;;;;;;5112245;28;20583;-77
2022/07/13 02:55:11;;;;;;;9.25;6.63;;;20.20;99.90;;;;;;5112277;28;20556;-77
2022/07/13 02:57:37;;;;;;;9.50;6.35;;;20.20;99.90;;;;;;5095221;28;20055;-77
2022/07/13 03:00:05;;;;;;;11.98;6.63;;;20.20;99.90;;;;;;5094604;28;20116;-78
2022/07/13 03:02:32;;;;;;;8.80;6.13;;;20.20;99.90;;;;;;5112599;28;20054;-77
2022/07/13 03:04:59;;;;;;;9.05;7.03;;;20.30;99.90;;;;;;5113216;28;20044;-78
2022/07/13 03:07:27;;;;;;;8.30;6.53;;;20.30;99.90;;;;;;5119942;28;20039;-76
2022/07/13 03:09:54;;;;;;;7.03;6.28;;;20.20;99.90;;;;;;5114922;28;20135;-78
2022/07/13 03:12:21;;;;;;;7.55;6.07;;;20.30;99.90;;;;;;5115939;28;20057;-78
2022/07/13 03:14:48;;;;;;;9.57;6.53;;;20.30;99.90;;;;;;5133670;28;20483;-79
2022/07/13 03:17:15;;;;;;;7.53;6.53;;;20.20;99.90;;;;;;5114593;28;20055;-77
2022/07/13 03:19:42;;;;;;;8.10;6.53;;;20.30;99.90;;;;;;5133548;28;20047;-77
2022/07/13 03:22:09;;;;;;;8.27;6.40;;;20.20;99.90;;;;;;5108657;28;20139;-78
2022/07/13 03:24:37;;;;;;;7.95;6.15;;;20.20;99.90;;;;;;5112054;28;20100;-78
2022/07/13 03:27:04;;;;;;;7.57;6.40;;;20.20;99.90;;;;;;5111353;28;20067;-78
2022/07/13 03:29:31;;;;;;;9.27;6.40;;;20.20;99.90;;;;;;5115411;28;20511;-78
2022/07/13 03:31:58;;;;;;;8.02;6.07;;;20.20;99.90;;;;;;5132892;28;20510;-79
2022/07/13 03:34:25;;;;;;;8.40;6.38;;;20.20;99.90;;;;;;5133362;28;20043;-78
2022/07/13 03:36:52;;;;;;;7.97;5.95;;;20.20;99.90;;;;;;5087193;27;20098;-78
2022/07/13 03:39:19;;;;;;;6.55;5.70;;;20.20;99.90;;;;;;5073875;28;20047;-79
2022/07/13 03:41:47;;;;;;;8.25;6.15;;;20.20;99.90;;;;;;5115525;28;20513;-79
2022/07/13 03:44:14;;;;;;;9.25;6.50;;;20.20;99.90;;;;;;5114049;28;20054;-79
2022/07/13 03:46:41;;;;;;;8.10;6.53;;;20.20;99.90;;;;;;5132198;28;20217;-79
2022/07/13 03:49:08;;;;;;;8.13;5.95;;;20.20;99.90;;;;;;5111170;28;20183;-80
2022/07/13 03:51:36;;;;;;;8.30;6.88;;;20.20;99.90;;;;;;5108162;28;20104;-80
2022/07/13 03:54:03;;;;;;;12.93;7.00;;;20.20;99.90;;;;;;5109527;28;20483;-79
2022/07/13 03:56:30;;;;;;;9.95;6.60;;;20.30;99.90;;;;;;5114131;28;20055;-79
2022/07/13 03:58:58;;;;;;;10.25;5.63;;;20.20;99.90;;;;;;5128069;28;20042;-80
2022/07/13 04:01:25;;;;;;;9.98;6.75;;;20.20;99.90;;;;;;5113492;28;20043;-79
2022/07/13 04:03:52;;;;;;;8.40;6.60;;;20.20;99.90;;;;;;5110337;28;20047;-79
2022/07/13 04:06:19;;;;;;;8.93;6.45;;;20.20;99.90;;;;;;5122283;28;20059;-80
2022/07/13 04:08:46;;;;;;;7.75;6.38;;;20.20;99.90;;;;;;5112963;28;20047;-79
2022/07/13 04:11:13;;;;;;;12.52;5.38;;;20.20;99.90;;;;;;5131457;27;20583;-79
2022/07/13 04:13:40;;;;;;;8.93;6.20;;;20.30;99.90;;;;;;5131500;27;20050;-79
2022/07/13 04:16:09;;;;;;;9.32;6.53;;;20.30;99.90;;;;;;5132327;27;20092;-79
2022/07/13 04:18:36;;;;;;;10.98;6.00;;;20.40;99.90;;;;;;5116189;27;20108;-79
2022/07/13 04:21:03;;;;;;;9.75;6.10;;;20.40;99.90;;;;;;5114504;27;20039;-79
2022/07/13 04:23:30;;;;;;;7.30;6.18;;;20.40;99.90;;;;;;5114977;27;20043;-79
2022/07/13 04:25:58;;;;;;;7.75;6.30;;;20.40;99.90;;;;;;5115919;27;20050;-80
2022/07/13 04:28:25;;;;;;;7.53;6.25;;;20.40;99.90;;;;;;5113830;27;20462;-79
2022/07/13 04:30:52;;;;;;;8.45;6.15;;;20.40;99.90;;;;;;5111236;27;20056;-80
2022/07/13 04:33:21;;;;;;;8.77;5.82;;;20.40;99.90;;;;;;5110658;27;20058;-79
2022/07/13 04:35:47;;;;;;;6.53;5.85;;;20.40;99.90;;;;;;5116818;27;20047;-79
2022/07/13 04:38:14;;;;;;;8.68;5.88;;;20.50;99.90;;;;;;5126608;27;20063;-79
2022/07/13 04:40:41;;;;;;;9.05;5.82;;;20.50;99.90;;;;;;5106702;28;20164;-78
2022/07/13 04:43:08;;;;;;;12.57;5.88;;;20.50;99.90;;;;;;5106805;28;20120;-78
2022/07/13 04:45:35;;;;;;;8.73;5.68;;;20.50;99.90;;;;;;5110114;28;20060;-79
2022/07/13 04:48:02;;;;;;;9.05;6.00;;;20.60;99.90;;;;;;5107981;27;20494;-79
2022/07/13 04:50:30;;;;;;;7.97;5.72;;;20.60;99.90;;;;;;5096141;28;20215;-77
2022/07/13 04:52:57;;;;;;;8.25;6.35;;;20.60;99.90;;;;;;5123605;27;20046;-77
2022/07/13 04:55:24;;;;;;;7.05;6.03;;;20.70;99.90;;;;;;5129922;27;20035;-78
2022/07/13 04:57:53;;;;;;;7.72;5.72;;;20.70;99.90;;;;;;5120188;27;20054;-75
2022/07/13 05:00:20;;;;;;;11.63;7.03;;;20.70;99.90;;;;;;5100078;27;20503;-75
2022/07/13 05:02:47;;;;;;;7.55;6.25;;;20.70;99.90;;;;;;5095971;28;20048;-74
2022/07/13 05:05:14;;;;;;;8.68;6.80;;;20.80;99.90;;;;;;5124678;27;20052;-76
2022/07/13 05:07:42;;;;;;;11.73;6.97;;;20.80;99.90;;;;;;5129166;27;20067;-76
2022/07/13 05:10:10;;;;;;;8.23;6.45;;;20.80;99.90;;;;;;5110135;27;20047;-76
2022/07/13 05:12:41;;;;;;;7.32;6.07;;;20.70;99.90;;;;;;5129755;27;20043;-76
2022/07/13 05:15:10;;;;;;;9.80;6.53;;;20.70;99.90;;;;;;5114125;27;20509;-77
2022/07/13 05:17:37;;;;;;;6.93;5.70;;;20.70;99.90;;;;;;5126829;27;20051;-76
2022/07/13 05:20:05;;;;;;;8.13;6.38;;;20.70;99.90;;;;;;5112610;27;20047;-76
2022/07/13 05:22:32;;;;;;;9.77;6.55;;;20.70;99.90;;;;;;5134057;27;20047;-77
2022/07/13 05:25:00;;;;;;;9.55;6.03;;;20.80;99.90;;;;;;5127778;27;20491;-77
2022/07/13 05:27:27;;;;;;;8.43;6.00;;;20.80;99.90;;;;;;5110423;27;20566;-78
2022/07/13 05:29:54;;;;;;;8.75;7.18;;;20.80;99.90;;;;;;5133845;27;20051;-76
2022/07/13 05:32:21;;;;;;;8.30;6.13;;;20.90;99.90;;;;;;5132944;27;20068;-76
2022/07/13 05:34:48;;;;;;;7.38;5.90;;;20.90;99.90;;;;;;5108639;27;20067;-75
2022/07/13 05:37:15;;;;;;;9.35;6.65;;;20.90;99.90;;;;;;5114795;27;20051;-78
2022/07/13 05:39:47;;;;;;;8.85;6.70;;;20.90;99.90;;;;;;5110841;27;20093;-77
2022/07/13 05:42:16;;;;;;;9.93;6.93;;;21.00;99.90;;;;;;5126123;27;20054;-79
2022/07/13 05:44:43;;;;;;;11.10;7.22;;;21.00;99.90;;;;;;5110678;27;20092;-79
2022/07/13 05:47:10;;;;;;;9.55;6.78;;;21.00;99.90;;;;;;5110417;27;20415;-77
2022/07/13 05:49:36;;;;;;;10.68;6.80;;;21.10;99.90;;;;;;5115027;27;20047;-77
2022/07/13 05:52:04;;;;;;;9.38;6.60;;;21.10;99.90;;;;;;5113569;27;20539;-79
2022/07/13 05:54:31;;;;;;;9.95;6.25;;;21.10;99.90;;;;;;5129907;27;20043;-77
2022/07/13 05:56:58;;;;;;;10.20;6.90;;;21.10;99.90;;;;;;5128879;27;20070;-78
2022/07/13 05:59:26;;;;;;;9.75;5.95;;;21.20;99.90;;;;;;5114651;27;20072;-77
2022/07/13 06:01:53;;;;;;;9.38;7.20;;;21.30;99.90;;;;;;5125364;27;20043;-77
2022/07/13 06:04:20;;;;;;;11.88;7.07;;;21.30;99.90;;;;;;5129615;27;20043;-76
2022/07/13 06:06:47;;;;;;;17.15;6.70;;;21.30;99.90;;;;;;5108996;27;20104;-77
2022/07/13 06:09:14;;;;;;;14.32;7.20;;;21.30;99.90;;;;;;5126303;27;20449;-78
2022/07/13 06:11:41;;;;;;;18.80;8.25;;;21.40;99.90;;;;;;5126470;27;20506;-77
2022/07/13 06:14:08;;;;;;;13.65;8.07;;;21.40;99.90;;;;;;5126790;27;20044;-78
2022/07/13 06:16:36;;;;;;;11.65;8.52;;;21.40;99.90;;;;;;5108435;27;20046;-79
2022/07/13 06:19:03;;;;;;;15.05;8.85;;;21.50;99.90;;;;;;5130234;27;20092;-76
2022/07/13 06:21:30;;;;;;;14.98;7.40;;;21.50;99.90;;;;;;5128524;27;20104;-77
2022/07/13 06:23:57;;;;;;;13.75;7.35;;;21.50;99.90;;;;;;5130919;27;21348;-77
2022/07/13 06:26:24;;;;;;;11.38;7.75;;;21.70;99.90;;;;;;5127486;27;20092;-76
2022/07/13 06:28:51;;;;;;;11.15;7.95;;;21.70;99.90;;;;;;5130105;27;20486;-75
2022/07/13 06:31:18;;;;;;;13.48;8.40;;;21.80;99.90;;;;;;5127617;27;20047;-77
2022/07/13 06:33:51;;;;;;;12.35;7.88;;;21.90;99.90;;;;;;5123629;27;20055;-77
2022/07/13 06:36:17;;;;;;;13.45;8.10;;;22.10;99.90;;;;;;5130913;27;20130;-77
2022/07/13 06:38:44;;;;;;;12.02;8.35;;;22.30;99.90;;;;;;5109065;27;20047;-77
2022/07/13 06:41:11;;;;;;;10.77;7.68;;;22.40;99.90;;;;;;5112283;27;20046;-76
2022/07/13 06:43:38;;;;;;;12.30;8.15;;;22.60;99.90;;;;;;5132511;27;20047;-77
2022/07/13 06:46:06;;;;;;;11.85;7.63;;;22.70;99.90;;;;;;5107892;27;20108;-77
2022/07/13 06:48:33;;;;;;;12.45;8.10;;;23.00;99.90;;;;;;5124703;27;20043;-77
2022/07/13 06:51:01;;;;;;;13.90;8.27;;;23.40;99.90;;;;;;5111715;27;20494;-77
2022/07/13 06:53:28;;;;;;;12.23;7.88;;;23.80;99.90;;;;;;5112885;27;20112;-78
2022/07/13 06:55:55;;;;;;;13.00;7.63;;;24.20;99.90;;;;;;5106977;28;20043;-78
2022/07/13 06:58:22;;;;;;;9.82;7.40;;;24.50;99.90;;;;;;5124013;27;20096;-76
2022/07/13 07:00:50;;;;;;;12.88;7.90;;;24.90;99.90;;;;;;5111916;27;20543;-78
2022/07/13 07:03:18;;;;;;;11.80;7.35;;;25.00;99.90;;;;;;5127442;27;20059;-78
2022/07/13 07:05:44;;;;;;;10.27;6.75;;;25.50;99.90;;;;;;5113635;28;20047;-78
2022/07/13 07:08:13;;;;;;;11.00;7.72;;;25.80;99.90;;;;;;5106475;28;20055;-77
2022/07/13 07:10:40;;;;;;;12.07;6.90;;;26.10;99.90;;;;;;5112907;28;20484;-77
2022/07/13 07:13:07;;;;;;;10.48;6.85;;;26.40;99.90;;;;;;5131031;28;20047;-77
2022/07/13 07:15:34;;;;;;;10.88;6.90;;;26.60;99.90;;;;;;5125021;28;20042;-77
2022/07/13 07:18:01;;;;;;;9.05;6.30;;;26.90;99.90;;;;;;5128202;28;20071;-78
2022/07/13 07:20:28;;;;;;;12.05;6.30;;;27.40;99.90;;;;;;5127844;28;20050;-78
2022/07/13 07:22:55;;;;;;;11.30;6.22;;;27.80;99.90;;;;;;5113529;28;20051;-77
2022/07/13 07:25:24;;;;;;;7.88;6.32;;;28.10;99.90;;;;;;5113337;28;20096;-78
2022/07/13 07:27:51;;;;;;;8.63;6.55;;;27.90;99.90;;;;;;5129714;28;20043;-78
2022/07/13 07:30:18;;;;;;;14.95;7.50;;;27.30;99.90;;;;;;5107448;28;20112;-78
2022/07/13 07:32:45;;;;;;;10.18;6.93;;;27.40;99.90;;;;;;5113758;28;20051;-77
2022/07/13 07:35:12;;;;;;;11.85;6.57;;;27.70;99.90;;;;;;5123633;28;20088;-77
2022/07/13 07:37:40;;;;;;;10.63;6.78;;;28.10;99.90;;;;;;5127945;28;20097;-77
2022/07/13 07:40:08;;;;;;;11.25;6.90;;;28.40;99.90;;;;;;5129487;28;20122;-78
2022/07/13 07:42:36;;;;;;;8.68;6.32;;;28.80;99.90;;;;;;5111883;28;20043;-77
2022/07/13 07:45:04;;;;;;;10.25;7.03;;;29.10;99.90;;;;;;5124743;27;20047;-77
2022/07/13 07:47:31;;;;;;;10.73;7.60;;;29.50;99.90;;;;;;5133846;27;20540;-78
2022/07/13 07:49:58;;;;;;;9.13;7.50;;;29.90;98.80;;;;;;5116521;27;20066;-78
2022/07/13 07:52:25;;;;;;;12.52;8.68;;;30.10;98.20;;;;;;5117401;27;20112;-78
2022/07/13 07:54:52;;;;;;;10.00;8.68;;;30.10;97.80;;;;;;5115414;27;20047;-78
2022/07/13 07:57:19;;;;;;;12.13;8.10;;;30.10;97.50;;;;;;5131166;27;20051;-77
2022/07/13 07:59:47;;;;;;;13.35;7.75;;;30.30;97.40;;;;;;5117692;27;20109;-77
2022/07/13 08:02:14;;;;;;;12.00;7.68;;;30.50;96.90;;;;;;5130502;27;20108;-78
2022/07/13 08:04:41;;;;;;;9.68;7.47;;;31.00;96.50;;;;;;5109174;27;20060;-77
2022/07/13 08:07:08;;;;;;;9.77;6.93;;;31.10;96.00;;;;;;5133955;27;20407;-78
2022/07/13 08:09:35;;;;;;;9.38;6.32;;;30.80;95.70;;;;;;5115428;27;20082;-77
2022/07/13 08:12:02;;;;;;;10.70;6.53;;;31.20;95.30;;;;;;5127973;27;20100;-77
2022/07/13 08:14:30;;;;;;;10.27;6.25;;;31.10;95.00;;;;;;5134999;27;20039;-77
2022/07/13 08:16:59;;;;;;;11.13;7.35;;;31.20;94.60;;;;;;5109487;27;20490;-78
2022/07/13 08:19:26;;;;;;;9.50;6.30;;;31.10;93.90;;;;;;5127521;27;20379;-77
2022/07/13 08:21:53;;;;;;;11.43;7.00;;;31.30;94.30;;;;;;5109088;27;20502;-76
2022/07/13 08:24:20;;;;;;;7.72;5.53;;;31.50;93.50;;;;;;5127802;27;20490;-77
2022/07/13 08:26:47;;;;;;;9.57;6.05;;;31.60;93.20;;;;;;5126399;27;20055;-77
2022/07/13 08:29:14;;;;;;;8.30;5.70;;;31.40;92.70;;;;;;5114906;27;20047;-78
2022/07/13 08:31:41;;;;;;;7.32;4.07;;;31.80;92.50;;;;;;5115943;27;20053;-78
2022/07/13 08:39:38;;;;;;;8.63;4.97;;;32.80;91.20;;;;;;5115418;27;20054;-78
2022/07/13 08:42:06;;;;;;;9.55;4.40;;;33.00;90.40;;;;;;5113469;27;20047;-77
2022/07/13 08:44:33;;;;;;;9.13;4.20;;;33.10;90.10;;;;;;5133616;27;20039;-78
2022/07/13 08:47:01;;;;;;;7.35;4.60;;;33.10;87.90;;;;;;5126748;27;20047;-78
2022/07/13 08:49:30;;;;;;;9.55;4.53;;;33.00;87.20;;;;;;5129343;27;20043;-77
2022/07/13 08:51:58;;;;;;;7.78;4.55;;;32.80;86.90;;;;;;5128328;27;20050;-78
2022/07/13 08:54:25;;;;;;;5.60;3.10;;;32.80;86.10;;;;;;5130340;27;20057;-78
2022/07/13 08:56:52;;;;;;;5.72;3.70;;;33.00;84.90;;;;;;5114664;27;20051;-78
2022/07/13 08:59:19;;;;;;;4.97;3.50;;;32.80;83.20;;;;;;5131211;27;20078;-79
2022/07/13 09:01:48;;;;;;;6.53;3.00;;;33.20;83.50;;;;;;5127158;27;20055;-78
2022/07/13 09:04:15;;;;;;;5.43;3.33;;;33.40;83.10;;;;;;5127616;27;20059;-78
2022/07/13 09:06:48;;;;;;;5.35;3.47;;;33.60;82.10;;;;;;5133863;27;20116;-78
2022/07/13 09:09:31;;;;;;;5.63;2.67;;;33.40;80.30;;;;;;5125932;27;20046;-78
2022/07/13 09:12:16;;;;;;;6.30;2.65;;;33.80;78.80;;;;;;5115206;27;20047;-79
2022/07/13 09:14:44;;;;;;;6.07;3.28;;;34.10;78.10;;;;;;5115316;27;20051;-79
2022/07/13 09:17:30;;;;;;;4.10;2.35;;;34.00;79.40;;;;;;5125960;27;20061;-78
2022/07/13 09:19:58;;;;;;;6.65;3.00;;;34.30;77.10;;;;;;5129898;27;20684;-79
2022/07/13 09:22:26;;;;;;;5.72;2.60;;;34.30;77.50;;;;;;5110735;27;20058;-78
2022/07/13 09:24:54;;;;;;;6.57;2.23;;;34.50;77.40;;;;;;5127352;27;20047;-78
2022/07/13 09:27:22;;;;;;;5.07;3.13;;;34.80;76.90;;;;;;5126606;27;20111;-78
2022/07/13 09:29:49;;;;;;;3.38;2.05;;;34.80;75.70;;;;;;5112154;27;20474;-79
2022/07/13 09:32:16;;;;;;;3.97;2.30;;;34.80;75.90;;;;;;5128479;27;20043;-77
2022/07/13 09:34:50;;;;;;;5.78;2.47;;;34.90;75.80;;;;;;5112415;27;20054;-78
2022/07/13 09:37:19;;;;;;;3.35;1.80;;;35.20;75.10;;;;;;5112857;27;20097;-79
2022/07/13 09:40:07;;;;;;;2.93;1.67;;;35.30;74.80;;;;;;5111269;27;20129;-79
2022/07/13 09:42:36;;;;;;;;;;;35.60;71.00;;;;;;5115857;27;20490;-78
2022/07/13 09:47:52;;;;;;;3.78;1.20;;;35.40;71.00;;;;;;5109793;27;20406;-80
2022/07/13 09:50:19;;;;;;;3.22;1.63;;;35.50;69.00;;;;;;5127866;27;20054;-78
2022/07/13 09:52:47;;;;;;;4.88;1.70;;;35.60;69.00;;;;;;5132788;27;20046;-78
2022/07/13 09:55:19;;;;;;;5.20;2.55;;;35.70;70.30;;;;;;5132208;27;20035;-79
2022/07/13 09:57:52;;;;;;;6.45;2.17;;;35.60;71.10;;;;;;5127108;27;20095;-78
2022/07/13 10:00:20;;;;;;;3.70;1.90;;;35.70;71.10;;;;;;5110935;27;20046;-79
2022/07/13 10:02:49;;;;;;;5.38;1.95;;;35.60;70.90;;;;;;5131020;27;20533;-79
2022/07/13 10:05:17;;;;;;;3.67;1.52;;;35.60;70.70;;;;;;5126172;27;20074;-79
2022/07/13 10:07:46;;;;;;;6.25;1.88;;;35.80;70.10;;;;;;5113354;27;20078;-79
2022/07/13 10:10:15;;;;;;;2.53;1.55;;;36.00;69.70;;;;;;5112095;27;20104;-79
2022/07/13 10:12:44;;;;;;;4.40;1.52;;;35.90;69.10;;;;;;5128616;27;20127;-79
2022/07/13 10:15:13;;;;;;;3.25;1.40;;;36.10;67.90;;;;;;5113367;27;20099;-79
2022/07/13 10:17:42;;;;;;;5.22;1.15;;;36.10;67.40;;;;;;5107919;27;20048;-79
2022/07/13 10:20:13;;;;;;;4.55;1.60;;;36.20;66.10;;;;;;5124542;27;20074;-79
2022/07/13 10:22:45;;;;;;;2.63;1.30;;;36.20;66.30;;;;;;5125093;27;20039;-79
2022/07/13 10:25:12;;;;;;;4.00;1.20;;;36.10;66.00;;;;;;5112658;27;20126;-79
2022/07/13 10:27:42;;;;;;;2.45;1.15;;;36.30;66.20;;;;;;5110201;27;20085;-78
2022/07/13 10:30:11;;;;;;;2.63;1.13;;;36.30;64.40;;;;;;5132400;27;20099;-79
2022/07/13 10:32:39;;;;;;;4.22;1.20;;;36.10;64.20;;;;;;5111049;27;20051;-79
2022/07/13 10:35:09;;;;;;;3.10;1.10;;;35.90;64.70;;;;;;5112545;27;20058;-78
2022/07/13 10:38:16;;;;;;;3.33;1.08;;;35.70;63.70;;;;;;5125797;27;20065;-79
2022/07/13 10:40:45;;;;;;;2.35;1.23;;;35.60;63.00;;;;;;5056066;28;20049;-79
2022/07/13 10:43:18;;;;;;;3.35;1.45;;;35.40;63.50;;;;;;5055144;28;20043;-79
2022/07/13 10:45:48;;;;;;;3.08;1.10;;;35.50;63.30;;;;;;5101999;27;20058;-79
2022/07/13 10:48:41;;;;;;;2.30;1.17;;;35.70;63.70;;;;;;5127056;27;20043;-80
2022/07/13 10:51:17;;;;;;;3.40;1.40;;;35.80;63.00;;;;;;5127239;27;20058;-80
2022/07/13 10:54:10;;;;;;;7.45;2.47;;;36.00;63.30;;;;;;5126262;27;20047;-79
2022/07/13 10:56:37;;;;;;;2.97;1.35;;;36.10;60.60;;;;;;5112062;28;20039;-78
2022/07/13 10:59:07;;;;;;;2.42;1.13;;;36.10;61.50;;;;;;5108693;28;20047;-77
2022/07/13 11:01:42;;;;;;;2.38;1.20;;;36.10;61.10;;;;;;5109701;28;20441;-78
2022/07/13 11:04:11;;;;;;;2.83;1.15;;;36.10;61.30;;;;;;5109622;27;20063;-77
2022/07/13 11:06:38;;;;;;;4.60;1.48;;;36.30;61.70;;;;;;5127175;27;20451;-77
2022/07/13 11:09:14;;;;;;;3.75;1.27;;;36.20;60.70;;;;;;5108103;28;20122;-77
2022/07/13 11:11:48;;;;;;;3.20;1.20;;;35.90;60.30;;;;;;5129092;28;20084;-78
2022/07/13 11:15:00;;;;;;;2.30;1.08;;;36.20;61.20;;;;;;5125709;28;20047;-78
2022/07/13 11:17:29;;;;;;;2.88;1.13;;;36.10;59.50;;;;;;5109287;28;20087;-78
2022/07/13 11:20:01;;;;;;;2.25;1.20;;;35.70;60.50;;;;;;5109480;27;20084;-78
2022/07/13 11:25:13;;;;;;;4.53;1.10;;;35.80;60.80;;;;;;5115734;27;20498;-77
2022/07/13 11:25:41;;;;;;;4.35;1.02;;;35.90;61.30;;;;;;5114579;27;20049;-79
2022/07/13 11:28:25;;;;;;;5.60;1.30;;;35.70;61.90;;;;;;5115590;27;20051;-79
2022/07/13 11:30:55;;;;;;;5.13;1.70;;;35.70;63.50;;;;;;5129597;27;20040;-78
2022/07/13 11:33:23;;;;;;;3.13;1.52;;;35.40;64.40;;;;;;5115138;27;20039;-78
2022/07/13 11:35:51;;;;;;;4.60;1.45;;;35.20;65.60;;;;;;5129951;27;20047;-78
2022/07/13 11:38:19;;;;;;;6.03;1.42;;;35.40;65.20;;;;;;5131429;27;20055;-78
2022/07/13 11:40:46;;;;;;;3.25;1.05;;;35.50;64.70;;;;;;5131547;27;20126;-78
2022/07/13 11:43:14;;;;;;;2.70;1.10;;;35.70;63.60;;;;;;5115445;27;20047;-78
2022/07/13 11:45:42;;;;;;;3.15;1.30;;;35.30;63.30;;;;;;5110684;28;20054;-78
2022/07/13 11:48:13;;;;;;;4.15;1.42;;;35.00;64.00;;;;;;5109439;28;20048;-78
2022/07/13 11:50:50;;;;;;;3.28;1.45;;;35.10;64.60;;;;;;5111055;28;20126;-77
2022/07/13 11:53:21;;;;;;;4.43;1.60;;;35.40;64.90;;;;;;5105724;28;20075;-78
2022/07/13 11:55:48;;;;;;;2.92;1.60;;;35.10;65.10;;;;;;5106814;28;20052;-78
2022/07/13 11:58:27;;;;;;;3.05;1.70;;;35.30;66.10;;;;;;5110298;28;20096;-78
2022/07/13 12:00:54;;;;;;;8.60;2.20;;;35.50;67.00;;;;;;5111686;28;20058;-78
2022/07/13 12:03:33;;;;;;;2.97;1.70;;;35.70;67.50;;;;;;5106082;28;20597;-77
2022/07/13 12:06:01;;;;;;;;;;;35.90;67.10;;;;;;5111093;28;20101;-77
2022/07/13 12:08:30;;;;;;;3.65;1.70;;;36.00;66.60;;;;;;5110507;28;19970;-77
2022/07/13 12:10:58;;;;;;;5.10;1.52;;;36.10;67.30;;;;;;5109704;28;20524;-78
2022/07/13 12:13:25;;;;;;;4.80;1.50;;;36.20;67.50;;;;;;5112316;28;20100;-77
2022/07/13 12:15:52;;;;;;;4.30;1.70;;;36.50;67.40;;;;;;5110713;28;20438;-77
2022/07/13 12:18:19;;;;;;;7.15;2.40;;;36.10;67.00;;;;;;5105507;28;20052;-77
2022/07/13 12:20:46;;;;;;;4.10;1.75;;;35.80;67.90;;;;;;5106988;28;20048;-78
2022/07/13 12:23:17;;;;;;;5.43;1.30;;;35.90;67.20;;;;;;5108036;28;20055;-77
2022/07/13 12:25:47;;;;;;;7.50;1.70;;;36.00;67.30;;;;;;5103094;28;20059;-77
2022/07/13 12:28:13;;;;;;;5.07;1.75;;;36.00;67.30;;;;;;5104515;28;20453;-77
2022/07/13 12:30:58;;;;;;;3.47;1.77;;;36.00;67.40;;;;;;5110624;28;20101;-77
2022/07/13 12:33:25;;;;;;;3.03;1.60;;;35.90;67.60;;;;;;5106979;28;20083;-78
2022/07/13 12:36:03;;;;;;;5.38;1.58;;;36.10;67.60;;;;;;5100827;28;20059;-79
2022/07/13 12:38:32;;;;;;;5.60;1.70;;;36.00;67.50;;;;;;5109517;28;20051;-79
2022/07/13 12:41:01;;;;;;;5.97;1.48;;;35.90;67.80;;;;;;5108717;28;20559;-79
2022/07/13 12:43:29;;;;;;;6.28;2.03;;;36.10;67.80;;;;;;5110539;28;20047;-77
2022/07/13 12:45:57;;;;;;;6.03;1.90;;;36.20;67.90;;;;;;5100467;28;20052;-78
2022/07/13 12:48:26;;;;;;;6.18;2.45;;;36.30;67.40;;;;;;5090153;28;20056;-78
2022/07/13 12:51:00;;;;;;;4.40;1.73;;;36.10;67.50;;;;;;5096832;28;20101;-79
2022/07/13 12:53:43;;;;;;;5.85;1.70;;;36.30;67.30;;;;;;5088089;28;20044;-78
2022/07/13 12:56:12;;;;;;;6.60;1.52;;;36.20;68.10;;;;;;5090954;28;20055;-78
2022/07/13 12:58:43;;;;;;;6.55;2.08;;;35.90;67.60;;;;;;5085772;28;20139;-78
2022/07/13 13:01:11;;;;;;;3.80;1.50;;;35.80;67.30;;;;;;5091360;28;20516;-78